Time,TemperatureF,DewpointF,PressureIn,WindDirection,WindDirectionDegrees,WindSpeedMPH,WindSpeedGustMPH,Humidity,HourlyPrecipIn,Conditions,Clouds,dailyrainin,SoftwareType,DateUTC
2013-03-13 00:02:00,60.0,52.0,-100.00,NE,34,0.0,5.0,76,0.00,,,0.00,,2013-03-13 10:02:00,
2013-03-13 00:11:00,61.0,54.0,-100.00,South,191,0.0,5.0,79,0.00,,,0.00,,2013-03-13 10:11:00,
2013-03-13 00:32:00,61.0,54.0,-100.00,South,191,0.0,5.0,79,0.00,,,0.00,,2013-03-13 10:32:00,
2013-03-13 00:42:00,61.0,54.0,-100.00,South,191,0.0,5.0,79,0.00,,,0.00,,2013-03-13 10:42:00,
2013-03-13 00:52:00,61.0,54.0,-100.00,South,191,0.0,5.0,79,0.00,,,0.00,,2013-03-13 10:52:00,
2013-03-13 01:02:00,61.0,54.0,-100.00,South,191,0.0,5.0,79,0.00,,,0.00,,2013-03-13 11:02:00,
2013-03-13 01:11:00,61.0,56.0,-100.00,North,2,1.0,7.0,83,0.00,,,0.00,,2013-03-13 11:11:00,
2013-03-13 01:32:00,61.0,56.0,-100.00,North,2,1.0,7.0,83,0.00,,,0.00,,2013-03-13 11:32:00,
2013-03-13 01:42:00,61.0,56.0,-100.00,North,2,1.0,7.0,83,0.00,,,0.00,,2013-03-13 11:42:00,
2013-03-13 01:52:00,61.0,56.0,-100.00,North,2,1.0,7.0,83,0.00,,,0.00,,2013-03-13 11:52:00,
2013-03-13 02:02:00,61.0,56.0,-100.00,North,2,1.0,7.0,83,0.00,,,0.00,,2013-03-13 12:02:00,
2013-03-13 02:11:00,59.0,54.0,-100.00,WSW,250,1.0,7.0,83,0.00,,,0.00,,2013-03-13 12:11:00,
2013-03-13 02:32:00,59.0,54.0,-100.00,WSW,250,1.0,7.0,83,0.00,,,0.00,,2013-03-13 12:32:00,
2013-03-13 02:42:00,59.0,54.0,-100.00,WSW,250,1.0,7.0,83,0.00,,,0.00,,2013-03-13 12:42:00,
2013-03-13 02:53:00,59.0,54.0,-100.00,WSW,250,1.0,7.0,83,0.00,,,0.00,,2013-03-13 12:53:00,
2013-03-13 03:02:00,59.0,54.0,-100.00,WSW,250,1.0,7.0,83,0.00,,,0.00,,2013-03-13 13:02:00,
2013-03-13 03:11:00,59.0,54.0,-100.00,NNE,30,0.0,7.0,85,0.00,,,0.00,,2013-03-13 13:11:00,
2013-03-13 03:33:00,59.0,54.0,-100.00,NNE,30,0.0,7.0,85,0.00,,,0.00,,2013-03-13 13:33:00,
2013-03-13 03:43:00,59.0,54.0,-100.00,NNE,30,0.0,7.0,85,0.00,,,0.00,,2013-03-13 13:43:00,
2013-03-13 03:52:00,59.0,54.0,-100.00,NNE,30,0.0,7.0,85,0.00,,,0.00,,2013-03-13 13:52:00,
2013-03-13 04:02:00,59.0,54.0,-100.00,NNE,30,0.0,7.0,85,0.00,,,0.00,,2013-03-13 14:02:00,
2013-03-13 04:11:00,58.0,54.0,-100.00,NNE,29,1.0,6.0,86,0.00,,,-99.99,,2013-03-13 14:11:00,
2013-03-13 04:34:00,58.0,54.0,-100.00,NNE,29,1.0,6.0,86,0.00,,,-99.99,,2013-03-13 14:34:00,
2013-03-13 04:42:00,58.0,54.0,-100.00,NNE,29,1.0,6.0,86,0.00,,,-99.99,,2013-03-13 14:42:00,
2013-03-13 04:52:00,58.0,54.0,-100.00,NNE,29,1.0,6.0,86,0.00,,,-99.99,,2013-03-13 14:52:00,
2013-03-13 05:02:00,58.0,54.0,-100.00,NNE,29,1.0,6.0,86,0.00,,,-99.99,,2013-03-13 15:02:00,
2013-03-13 05:11:00,58.0,54.0,-100.00,NE,34,1.0,6.0,85,0.00,,,0.00,,2013-03-13 15:11:00,
2013-03-13 05:43:00,58.0,54.0,-100.00,NE,34,1.0,6.0,85,0.00,,,0.00,,2013-03-13 15:43:00,
2013-03-13 05:52:00,58.0,54.0,-100.00,NE,34,1.0,6.0,85,0.00,,,0.00,,2013-03-13 15:52:00,
2013-03-13 06:02:00,58.0,54.0,-100.00,NE,34,1.0,6.0,85,0.00,,,0.00,,2013-03-13 16:02:00,
2013-03-13 06:11:00,58.0,53.0,-100.00,SE,128,0.0,6.0,83,0.00,,,0.00,,2013-03-13 16:11:00,
2013-03-13 06:32:00,58.0,53.0,-100.00,SE,128,0.0,6.0,83,0.00,,,0.00,,2013-03-13 16:32:00,
2013-03-13 06:42:00,58.0,53.0,-100.00,SE,128,0.0,6.0,83,0.00,,,0.00,,2013-03-13 16:42:00,
2013-03-13 06:52:00,58.0,53.0,-100.00,SE,128,0.0,6.0,83,0.00,,,0.00,,2013-03-13 16:52:00,
2013-03-13 07:02:00,58.0,53.0,-100.00,SE,128,0.0,6.0,83,0.00,,,0.00,,2013-03-13 17:02:00,
2013-03-13 07:11:00,57.0,52.0,-100.00,NE,36,0.0,4.0,82,0.00,,,0.00,,2013-03-13 17:11:00,
2013-03-13 07:42:00,57.0,52.0,-100.00,NE,36,0.0,4.0,82,0.00,,,0.00,,2013-03-13 17:42:00,
2013-03-13 07:53:00,57.0,52.0,-100.00,NE,36,0.0,4.0,82,0.00,,,0.00,,2013-03-13 17:53:00,
2013-03-13 08:02:00,57.0,52.0,-100.00,NE,36,0.0,4.0,82,0.00,,,0.00,,2013-03-13 18:02:00,
2013-03-13 08:11:00,65.0,55.0,-100.00,NNE,21,0.0,7.0,69,0.00,,,0.00,,2013-03-13 18:11:00,
2013-03-13 08:42:00,65.0,55.0,-100.00,NNE,21,0.0,7.0,69,0.00,,,0.00,,2013-03-13 18:42:00,
2013-03-13 08:52:00,65.0,55.0,-100.00,NNE,21,0.0,7.0,69,0.00,,,0.00,,2013-03-13 18:52:00,
2013-03-13 09:02:00,65.0,55.0,-100.00,NNE,21,0.0,7.0,69,0.00,,,0.00,,2013-03-13 19:02:00,
2013-03-13 09:11:00,70.0,56.0,-100.00,NNE,33,1.0,6.0,62,0.00,,,0.00,,2013-03-13 19:11:00,
2013-03-13 09:43:00,70.0,56.0,-100.00,NNE,33,1.0,6.0,62,0.00,,,0.00,,2013-03-13 19:43:00,
2013-03-13 09:53:00,70.0,56.0,-100.00,NNE,33,1.0,6.0,62,0.00,,,0.00,,2013-03-13 19:53:00,
2013-03-13 10:02:00,70.0,56.0,-100.00,NNE,33,1.0,6.0,62,0.00,,,0.00,,2013-03-13 20:02:00,
2013-03-13 10:11:00,72.0,55.0,-100.00,WSW,258,0.0,7.0,55,0.00,,,0.00,,2013-03-13 20:11:00,
2013-03-13 10:32:00,72.0,55.0,-100.00,WSW,258,0.0,7.0,55,0.00,,,0.00,,2013-03-13 20:32:00,
2013-03-13 10:42:00,72.0,55.0,-100.00,WSW,258,0.0,7.0,55,0.00,,,0.00,,2013-03-13 20:42:00,
2013-03-13 10:52:00,72.0,55.0,-100.00,WSW,258,0.0,7.0,55,0.00,,,0.00,,2013-03-13 20:52:00,
2013-03-13 11:02:00,72.0,55.0,-100.00,WSW,258,0.0,7.0,55,0.00,,,0.00,,2013-03-13 21:02:00,
2013-03-13 11:11:00,74.0,56.0,-100.00,NNE,22,2.0,7.0,53,0.00,,,0.00,,2013-03-13 21:11:00,
2013-03-13 11:34:00,74.0,56.0,-100.00,NNE,22,2.0,7.0,53,0.00,,,0.00,,2013-03-13 21:34:00,
2013-03-13 11:42:00,74.0,56.0,-100.00,NNE,22,2.0,7.0,53,0.00,,,0.00,,2013-03-13 21:42:00,
2013-03-13 11:52:00,74.0,56.0,-100.00,NNE,22,2.0,7.0,53,0.00,,,0.00,,2013-03-13 21:52:00,
2013-03-13 12:02:00,74.0,56.0,-100.00,NNE,22,2.0,7.0,53,0.00,,,0.00,,2013-03-13 22:02:00,
2013-03-13 12:11:00,75.0,56.0,-100.00,NNE,17,2.0,8.0,51,0.00,,,0.00,,2013-03-13 22:11:00,
2013-03-13 12:42:00,75.0,56.0,-100.00,NNE,17,2.0,8.0,51,0.00,,,0.00,,2013-03-13 22:42:00,
2013-03-13 12:52:00,75.0,56.0,-100.00,NNE,17,2.0,8.0,51,0.00,,,0.00,,2013-03-13 22:52:00,
2013-03-13 13:02:00,75.0,56.0,-100.00,NNE,17,2.0,8.0,51,0.00,,,0.00,,2013-03-13 23:02:00,
2013-03-13 13:11:00,74.0,52.0,-100.00,NW,307,2.0,8.0,46,0.00,,,0.00,,2013-03-13 23:11:00,
2013-03-13 13:43:00,74.0,52.0,-100.00,NW,307,2.0,8.0,46,0.00,,,0.00,,2013-03-13 23:43:00,
2013-03-13 13:52:00,74.0,52.0,-100.00,NW,307,2.0,8.0,46,0.00,,,0.00,,2013-03-13 23:52:00,
2013-03-13 14:02:00,74.0,52.0,-100.00,NW,307,2.0,8.0,46,0.00,,,0.00,,2013-03-14 00:02:00,
2013-03-13 14:11:00,76.0,54.0,-100.00,NNE,14,2.0,8.0,46,0.00,,,0.00,,2013-03-14 00:11:00,
2013-03-13 14:33:00,76.0,54.0,-100.00,NNE,14,2.0,8.0,46,0.00,,,0.00,,2013-03-14 00:33:00,
2013-03-13 14:42:00,76.0,54.0,-100.00,NNE,14,2.0,8.0,46,0.00,,,0.00,,2013-03-14 00:42:00,
2013-03-13 14:52:00,76.0,54.0,-100.00,NNE,14,2.0,8.0,46,0.00,,,0.00,,2013-03-14 00:52:00,
2013-03-13 15:02:00,76.0,54.0,-100.00,NNE,14,2.0,8.0,46,0.00,,,0.00,,2013-03-14 01:02:00,
2013-03-13 15:11:00,73.0,52.0,-100.00,North,350,3.0,8.0,47,0.00,,,0.00,,2013-03-14 01:11:00,
2013-03-13 15:32:00,73.0,52.0,-100.00,North,350,3.0,8.0,47,0.00,,,0.00,,2013-03-14 01:32:00,
2013-03-13 15:42:00,73.0,52.0,-100.00,North,350,3.0,8.0,47,0.00,,,0.00,,2013-03-14 01:42:00,
2013-03-13 15:52:00,73.0,52.0,-100.00,North,350,3.0,8.0,47,0.00,,,0.00,,2013-03-14 01:52:00,
2013-03-13 16:02:00,73.0,52.0,-100.00,North,350,3.0,8.0,47,0.00,,,0.00,,2013-03-14 02:02:00,
2013-03-13 16:11:00,70.0,53.0,-100.00,NNE,22,3.0,8.0,54,0.00,,,0.00,,2013-03-14 02:11:00,
2013-03-13 17:01:00,70.0,53.0,-100.00,NNE,22,3.0,8.0,54,0.00,,,0.00,,2013-03-14 03:01:00,
2013-03-13 17:11:00,69.0,53.0,-100.00,NE,37,3.0,7.0,57,0.00,,,0.00,,2013-03-14 03:11:00,
2013-03-13 17:33:00,69.0,53.0,-100.00,NE,37,3.0,7.0,57,0.00,,,0.00,,2013-03-14 03:33:00,
2013-03-13 17:42:00,69.0,53.0,-100.00,NE,37,3.0,7.0,57,0.00,,,0.00,,2013-03-14 03:42:00,
2013-03-13 17:52:00,69.0,53.0,-100.00,NE,37,3.0,7.0,57,0.00,,,0.00,,2013-03-14 03:52:00,
2013-03-13 18:11:00,64.0,51.0,-100.00,ENE,74,1.0,6.0,62,0.00,,,0.00,,2013-03-14 04:11:00,
2013-03-13 18:32:00,64.0,51.0,-100.00,ENE,74,1.0,6.0,62,0.00,,,0.00,,2013-03-14 04:32:00,
2013-03-13 18:42:00,64.0,51.0,-100.00,ENE,74,1.0,6.0,62,0.00,,,0.00,,2013-03-14 04:42:00,
2013-03-13 18:52:00,64.0,51.0,-100.00,ENE,74,1.0,6.0,62,0.00,,,0.00,,2013-03-14 04:52:00,
2013-03-13 19:02:00,64.0,51.0,-100.00,ENE,74,1.0,6.0,62,0.00,,,0.00,,2013-03-14 05:02:00,
2013-03-13 19:11:00,60.0,51.0,-100.00,NNW,344,0.0,5.0,71,0.00,,,0.00,,2013-03-14 05:11:00,
2013-03-13 19:33:00,60.0,51.0,-100.00,NNW,344,0.0,5.0,71,0.00,,,0.00,,2013-03-14 05:33:00,
2013-03-13 19:42:00,60.0,51.0,-100.00,NNW,344,0.0,5.0,71,0.00,,,0.00,,2013-03-14 05:42:00,
2013-03-13 19:52:00,60.0,51.0,-100.00,NNW,344,0.0,5.0,71,0.00,,,0.00,,2013-03-14 05:52:00,
2013-03-13 20:02:00,60.0,51.0,-100.00,NNW,344,0.0,5.0,71,0.00,,,0.00,,2013-03-14 06:02:00,
2013-03-13 20:11:00,61.0,52.0,-100.00,ESE,109,0.0,4.0,72,0.00,,,0.00,,2013-03-14 06:11:00,
2013-03-13 20:33:00,61.0,52.0,-100.00,ESE,109,0.0,4.0,72,0.00,,,0.00,,2013-03-14 06:33:00,
2013-03-13 20:42:00,61.0,52.0,-100.00,ESE,109,0.0,4.0,72,0.00,,,0.00,,2013-03-14 06:42:00,
2013-03-13 20:52:00,61.0,52.0,-100.00,ESE,109,0.0,4.0,72,0.00,,,0.00,,2013-03-14 06:52:00,
2013-03-13 21:02:00,61.0,52.0,-100.00,ESE,109,0.0,4.0,72,0.00,,,0.00,,2013-03-14 07:02:00,
2013-03-13 21:11:00,60.0,51.0,-100.00,ESE,112,0.0,3.0,72,0.00,,,0.00,,2013-03-14 07:11:00,
2013-03-13 21:32:00,60.0,51.0,-100.00,ESE,112,0.0,3.0,72,0.00,,,0.00,,2013-03-14 07:32:00,
2013-03-13 21:43:00,60.0,51.0,-100.00,ESE,112,0.0,3.0,72,0.00,,,0.00,,2013-03-14 07:43:00,
2013-03-13 21:52:00,60.0,51.0,-100.00,ESE,112,0.0,3.0,72,0.00,,,0.00,,2013-03-14 07:52:00,
2013-03-13 22:02:00,60.0,51.0,-100.00,ESE,112,0.0,3.0,72,0.00,,,0.00,,2013-03-14 08:02:00,
2013-03-13 22:11:00,59.0,50.0,-100.00,East,90,0.0,3.0,71,0.00,,,0.00,,2013-03-14 08:11:00,
2013-03-13 22:42:00,59.0,50.0,-100.00,East,90,0.0,3.0,71,0.00,,,0.00,,2013-03-14 08:42:00,
2013-03-13 22:52:00,59.0,50.0,-100.00,East,90,0.0,3.0,71,0.00,,,0.00,,2013-03-14 08:52:00,
2013-03-13 23:01:00,59.0,50.0,-100.00,East,90,0.0,3.0,71,0.00,,,0.00,,2013-03-14 09:01:00,
2013-03-13 23:11:00,59.0,52.0,-100.00,South,171,0.0,2.0,77,0.00,,,0.00,,2013-03-14 09:11:00,
2013-03-13 23:32:00,59.0,52.0,-100.00,South,171,0.0,2.0,77,0.00,,,0.00,,2013-03-14 09:32:00,
2013-03-13 23:42:00,59.0,52.0,-100.00,South,171,0.0,2.0,77,0.00,,,0.00,,2013-03-14 09:42:00,
2013-03-13 23:52:00,59.0,52.0,-100.00,South,171,0.0,2.0,77,0.00,,,0.00,,2013-03-14 09:52:00,